Startpagina
METAR-TAF:

METAR-TAF

Vliegvelden :

Anchorage, Alaska, Verenigde Staten

breedte: 61-13N, lengte: 149-51W, hoogte: 42 m

Actueel weer

Dit bericht is 14 minuten geleden gemaakt, om 12:53 UTC
Weinig wind
Temperatuur 13°C
Vochtigheid 88%
Druk 1016 hPa
Zicht: 16.1 km
Verspreide wolken op 5000 ft
Gebroken wolken op 7500 ft

METAR: PAMR 171253Z 00000KT 10SM SCT050 BKN075 13/11 A3001 RMK AO2 RAE20 SLP161 P0000 T01280106

Tijdstip: 05:07 (13:07 UTC)


TAF: ontbreekt

Waarnemingen en weersverwachtingen van meer dan 4000 vliegvelden (METAR en TAF).

De beschikbare stations zijn de gele en rode punten op de kaart.

Ga met uw muis naar het station om de naam te zien.

Klik dan om waarnemingen en weersverwachtingen te zien.

kaart wijzigen: klik op de groene knoppen met een zwart kruis om in te zoomen, op de groene knop met een streepje om uit te zoomen of op de groene pijlen voor aangrenzende kaarten.


METAR-TAF: